Accueil
METAR-TAF:

METAR-TAF

Aéroports :

Aéroport de Jersey

Jersey,

latitude: 49-13N, longitude: 002-12W, altitude: 84 m

Observation

Le bulletin a été fait il y a 16 minutes, à 03:20 UTC
Vent 6 kt de ouest
Température 15°C
Humidité 100%
Pression 1014 hPa
Visibilité: 8000 m

METAR: EGJJ 020320Z AUTO 28006KT 8000 BKN003/// 15/15 Q1014

Heure: 04:36 (03:36 UTC)

Prévision

Le bulletin a été fait il y a 1 heure et 32 minutes, à 02:04 UTC
Prévision valable du 02 à 03 UTC au 02 à 12 UTC
Vent 10 kt de ouest
Visibilité 10 km ou plus
Quelques nuages à une hauteur de 300 ft
Nuages épars à une hauteur de 2500 ft
Evoluant progressivement
du 02 à 03 UTC au 02 à 04 UTC
Vent 8 kt de nord-ouest
Probabilité 30% :
Temporairement
du 02 à 03 UTC au 02 à 04 UTC
Nuages fragmentés à une hauteur de 400 ft

TAF: EGJJ 020204Z 0203/0212 26010KT 9999 FEW003 SCT025 BECMG 0203/0204 32008KT PROB30 TEMPO 0203/0204 BKN004

Observations et prévisions météorologiques de plus de 4000 aéroports (messages METAR et TAF).

Les stations disponibles sont représentées par des disques jaunes et rouges sur la carte.

Passer la souris dessus pour voir le nom de la station.

Cliquer dessus pour voir les observations et prévisions météorologiques.

Pour changer de carte: cliquez sur les boutons verts avec une croix noire pour zoomer, sur le bouton vert avec un tiret pour effectuer un zoom arrière, ou sur les flèches vertes pour les cartes adjacentes.


METAR-TAF: